createdAt,value
2024-01-01T00:01:43.394Z,96533.03
2024-01-01T00:04:14.004Z,96532.19
2024-01-01T00:06:44.359Z,96537.25
2024-01-01T00:09:14.764Z,96533.81
2024-01-01T00:11:47.725Z,96542.38
2024-01-01T00:14:17.974Z,96551.72
2024-01-01T00:16:48.352Z,96544.84
2024-01-01T00:19:18.702Z,96544.91
2024-01-01T00:21:48.925Z,96548.25
2024-01-01T00:24:19.148Z,96546.59
2024-01-01T00:26:51.962Z,96549.16
2024-01-01T00:29:25.379Z,96568.75
2024-01-01T00:32:01.693Z,96573.81
2024-01-01T00:34:32.085Z,96577.19
2024-01-01T00:37:02.329Z,96573.81
2024-01-01T00:39:32.606Z,96572.13
2024-01-01T00:42:05.931Z,96573.06
2024-01-01T00:44:36.716Z,96625.16
2024-01-01T00:47:07.506Z,96635.41
2024-01-01T00:49:37.852Z,96630.25
2024-01-01T00:52:08.630Z,96643.03
2024-01-01T00:54:39.012Z,96662.69
2024-01-01T00:57:12.784Z,96656.66
2024-01-01T00:59:42.973Z,96682.22
2024-01-01T01:02:13.288Z,96679.63
2024-01-01T01:04:59.159Z,96695.00
2024-01-01T01:07:36.589Z,96702.66
2024-01-01T01:10:08.008Z,96705.19
2024-01-01T01:12:40.824Z,96698.31
2024-01-01T01:15:11.466Z,96696.56
2024-01-01T01:17:41.815Z,96709.41
2024-01-01T01:20:13.042Z,96699.16
2024-01-01T01:22:43.302Z,96696.53
2024-01-01T01:25:14.191Z,96706.72
2024-01-01T01:27:47.465Z,96691.38
2024-01-01T01:30:18.028Z,96707.59
2024-01-01T01:32:48.722Z,96712.66
2024-01-01T01:35:19.287Z,96712.75
2024-01-01T01:37:49.518Z,96713.63
2024-01-01T01:40:20.022Z,96723.84
2024-01-01T01:42:52.847Z,96740.84
2024-01-01T01:45:24.248Z,96743.44
2024-01-01T01:47:54.839Z,96744.31
2024-01-01T01:50:25.215Z,96757.13
2024-01-01T01:52:55.660Z,96761.31
2024-01-01T01:55:25.990Z,96744.28
2024-01-01T01:57:58.875Z,96743.41
2024-01-01T02:00:29.069Z,96740.91
2024-01-01T02:03:01.293Z,96728.97
2024-01-01T02:05:31.611Z,96740.88
2024-01-01T02:08:02.128Z,96728.81
2024-01-01T02:10:32.531Z,96735.69
2024-01-01T02:13:06.235Z,96741.69
2024-01-01T02:15:36.452Z,96736.59
2024-01-01T02:18:07.087Z,96728.06
2024-01-01T02:20:37.556Z,96728.00
2024-01-01T02:23:10.559Z,96722.91
2024-01-01T02:25:40.799Z,96700.69
2024-01-01T02:28:11.243Z,96714.28
2024-01-01T02:30:41.709Z,96719.41
2024-01-01T02:33:13.448Z,96716.81
2024-01-01T02:35:43.898Z,96705.88
2024-01-01T02:38:16.916Z,96699.00
2024-01-01T02:40:47.289Z,96703.25
2024-01-01T02:43:17.508Z,96697.28
2024-01-01T02:45:47.733Z,96694.66
2024-01-01T02:48:18.042Z,96698.97
2024-01-01T02:50:48.509Z,96678.53
2024-01-01T02:53:21.360Z,96709.31
2024-01-01T02:55:51.758Z,96722.03
2024-01-01T02:58:22.026Z,96721.16
2024-01-01T03:00:52.383Z,96733.00
2024-01-01T03:03:23.391Z,96727.13
2024-01-01T03:05:53.681Z,96722.81
2024-01-01T03:08:26.640Z,96727.19
2024-01-01T03:10:56.899Z,96720.41
2024-01-01T03:13:27.250Z,96714.38
2024-01-01T03:15:57.567Z,96703.28
2024-01-01T03:18:27.938Z,96710.88
2024-01-01T03:20:58.839Z,96716.00
2024-01-01T03:23:31.713Z,96727.03
2024-01-01T03:26:02.338Z,96733.03
2024-01-01T03:28:32.623Z,96738.19
2024-01-01T03:31:03.340Z,96750.97
2024-01-01T03:33:39.722Z,96750.16
2024-01-01T03:36:10.896Z,96752.69
2024-01-01T03:38:43.754Z,96744.13
2024-01-01T03:41:14.069Z,96739.88
2024-01-01T03:43:44.490Z,96745.88
2024-01-01T03:46:14.741Z,96752.59
2024-01-01T03:48:45.041Z,96758.63
2024-01-01T03:51:15.316Z,96752.69
2024-01-01T03:53:48.158Z,96757.75
2024-01-01T03:56:19.680Z,96774.84
2024-01-01T03:58:50.082Z,96791.00
2024-01-01T04:01:20.454Z,96786.72
2024-01-01T04:03:50.793Z,96788.44
2024-01-01T04:06:21.098Z,96788.34
2024-01-01T04:08:54.165Z,96792.59
2024-01-01T04:11:24.361Z,96799.44
2024-01-01T04:13:54.706Z,96807.09
2024-01-01T04:16:25.004Z,96812.22
2024-01-01T04:18:55.580Z,96809.63
2024-01-01T04:21:25.772Z,96819.94
2024-01-01T04:23:59.653Z,96818.28
2024-01-01T04:26:29.891Z,96827.59
2024-01-01T04:29:00.142Z,96840.38
2024-01-01T04:31:30.388Z,96836.03
2024-01-01T04:34:03.553Z,96838.50
2024-01-01T04:36:34.074Z,96844.44
2024-01-01T04:39:07.369Z,96831.66
2024-01-01T04:41:38.028Z,96840.97
2024-01-01T04:44:08.815Z,96851.19
2024-01-01T04:46:39.151Z,96864.09
2024-01-01T04:49:09.467Z,96855.63
2024-01-01T04:51:39.825Z,96864.94
2024-01-01T04:54:12.697Z,96863.16
2024-01-01T04:56:43.043Z,96864.84
2024-01-01T04:59:13.451Z,96871.78
2024-01-01T05:01:43.781Z,96882.78
2024-01-01T05:04:14.106Z,96897.13
2024-01-01T05:06:44.391Z,96914.22
2024-01-01T05:09:17.289Z,96918.56
2024-01-01T05:11:48.070Z,96918.56
2024-01-01T05:14:18.520Z,96925.44
2024-01-01T05:16:49.980Z,96927.13
2024-01-01T05:19:20.276Z,96930.56
2024-01-01T05:21:50.528Z,96941.53
2024-01-01T05:24:23.379Z,96939.00
2024-01-01T05:26:53.589Z,96945.94
2024-01-01T05:29:23.865Z,96939.97
2024-01-01T05:31:54.145Z,96951.03
2024-01-01T05:34:24.398Z,96954.44
2024-01-01T05:36:54.743Z,96961.22
2024-01-01T05:39:27.685Z,96951.75
2024-01-01T05:41:58.038Z,96940.78
2024-01-01T05:44:28.230Z,96933.94
2024-01-01T05:46:58.583Z,96922.88
2024-01-01T05:49:28.883Z,96921.13
2024-01-01T05:51:59.094Z,96915.13
2024-01-01T05:54:32.122Z,96914.22
2024-01-01T05:57:02.811Z,96914.19
2024-01-01T05:59:33.026Z,96918.47
2024-01-01T06:02:03.276Z,96910.78
2024-01-01T06:04:33.517Z,96909.03
2024-01-01T06:07:03.806Z,96906.50
2024-01-01T06:09:36.689Z,96905.75
2024-01-01T06:12:07.932Z,96915.94
2024-01-01T06:14:38.169Z,96915.91
2024-01-01T06:17:08.538Z,96911.59
2024-01-01T06:19:38.961Z,96912.50
2024-01-01T06:22:09.166Z,96900.56
2024-01-01T06:24:42.030Z,96904.72
2024-01-01T06:27:12.239Z,96920.78
2024-01-01T06:29:42.503Z,96927.41
2024-01-01T06:32:13.243Z,96938.31
2024-01-01T06:34:46.046Z,96953.16
2024-01-01T06:37:16.605Z,96963.31
2024-01-01T06:39:49.456Z,96971.66
2024-01-01T06:42:20.035Z,96967.31
2024-01-01T06:44:50.217Z,96978.31
2024-01-01T06:47:20.522Z,96978.19
2024-01-01T06:49:50.828Z,96982.41
2024-01-01T06:52:21.245Z,97001.25
2024-01-01T06:54:54.097Z,97004.00
2024-01-01T06:57:24.479Z,97012.59
2024-01-01T06:59:55.725Z,97016.50
2024-01-01T07:02:26.880Z,97016.69
2024-01-01T07:04:57.178Z,97022.63
2024-01-01T07:07:27.490Z,97025.09
2024-01-01T07:10:00.994Z,97037.97
2024-01-01T07:12:31.546Z,97038.66
2024-01-01T07:15:02.424Z,97047.97
2024-01-01T07:17:32.808Z,97045.50
2024-01-01T07:20:05.250Z,97053.03
2024-01-01T07:22:35.493Z,97054.81
2024-01-01T07:25:10.623Z,97050.47
2024-01-01T07:27:41.268Z,97051.28
2024-01-01T07:30:12.438Z,97054.81
2024-01-01T07:32:42.679Z,97061.13
2024-01-01T07:35:12.951Z,97064.38
2024-01-01T07:37:43.286Z,97069.47
2024-01-01T07:40:16.625Z,97069.16
2024-01-01T07:42:46.804Z,97074.13
2024-01-01T07:45:17.100Z,97070.47
2024-01-01T07:47:47.434Z,97070.41
2024-01-01T07:50:19.928Z,97070.94
2024-01-01T07:52:53.395Z,97069.94
2024-01-01T07:55:26.238Z,97069.25
2024-01-01T07:57:56.836Z,97066.84
2024-01-01T08:00:27.128Z,97069.25
2024-01-01T08:02:54.813Z,97075.81
2024-01-01T08:05:25.248Z,97078.19
2024-01-01T08:07:58.800Z,97070.50
2024-01-01T08:10:31.869Z,97074.25
2024-01-01T08:13:02.096Z,97069.28
2024-01-01T08:15:32.243Z,97069.66
2024-01-01T08:18:02.621Z,97070.91
2024-01-01T08:20:33.287Z,97068.81
2024-01-01T08:23:03.753Z,97075.38
2024-01-01T08:25:36.560Z,97079.09
2024-01-01T08:28:07.655Z,97078.09
2024-01-01T08:30:40.216Z,97077.50
2024-01-01T08:33:10.779Z,97077.94
2024-01-01T08:35:40.993Z,97076.69
2024-01-01T08:38:11.259Z,97088.19
2024-01-01T08:40:44.141Z,97082.34
2024-01-01T08:43:14.820Z,97085.75
2024-01-01T08:45:45.084Z,97092.25
2024-01-01T08:48:15.497Z,97096.00
2024-01-01T08:50:45.796Z,97085.72
2024-01-01T08:53:16.959Z,97084.00
2024-01-01T08:55:51.435Z,97086.00
2024-01-01T08:58:21.944Z,97086.16
2024-01-01T09:00:52.361Z,97086.25
2024-01-01T09:03:22.738Z,97080.59
2024-01-01T09:05:55.076Z,97089.34
2024-01-01T09:08:25.514Z,97073.97
2024-01-01T09:10:58.539Z,97078.25
2024-01-01T09:13:28.827Z,97078.31
2024-01-01T09:15:59.119Z,97075.72
2024-01-01T09:18:29.899Z,97089.56
2024-01-01T09:21:00.879Z,97081.06
2024-01-01T09:23:31.267Z,97090.50
2024-01-01T09:26:04.114Z,97068.13
2024-01-01T09:28:34.578Z,97078.44
2024-01-01T09:31:04.925Z,97066.34
2024-01-01T09:33:35.255Z,97063.75
2024-01-01T09:36:05.618Z,97067.19
2024-01-01T09:38:35.964Z,97057.78
2024-01-01T09:41:09.135Z,97061.16
2024-01-01T09:43:39.394Z,97068.81
2024-01-01T09:46:09.799Z,97072.31
2024-01-01T09:48:40.351Z,97062.91
2024-01-01T09:51:10.653Z,97056.06
2024-01-01T09:53:41.316Z,97063.75
2024-01-01T09:56:14.273Z,97063.81
2024-01-01T09:58:45.884Z,97058.78
2024-01-01T10:01:17.984Z,97063.94
2024-01-01T10:03:48.606Z,97057.91
2024-01-01T10:06:18.957Z,97052.78
2024-01-01T10:08:49.310Z,97054.47
2024-01-01T10:11:23.448Z,97053.63
2024-01-01T10:13:53.827Z,97057.00
2024-01-01T10:16:29.262Z,97057.81
2024-01-01T10:19:01.201Z,97060.34
2024-01-01T10:21:32.543Z,97067.56
2024-01-01T10:24:07.770Z,97063.22
2024-01-01T10:26:47.846Z,97073.63
2024-01-01T10:29:20.315Z,97071.28
2024-01-01T10:31:51.327Z,97071.38
2024-01-01T10:34:22.359Z,97067.28
2024-01-01T10:36:53.184Z,97064.72
2024-01-01T10:39:24.213Z,97066.50
2024-01-01T10:41:58.488Z,97053.66
2024-01-01T10:44:28.825Z,97051.91
2024-01-01T10:47:01.812Z,97057.03
2024-01-01T10:49:34.033Z,97051.81
2024-01-01T10:52:14.907Z,97061.13
2024-01-01T10:55:04.456Z,97060.13
2024-01-01T10:58:05.996Z,97050.69
2024-01-01T11:00:40.411Z,97042.75
2024-01-01T11:03:14.544Z,97042.44
2024-01-01T11:05:46.480Z,97030.34
2024-01-01T11:08:16.762Z,97027.66
2024-01-01T11:10:51.169Z,97030.03
2024-01-01T11:13:51.436Z,97025.00
2024-01-01T11:16:24.583Z,97022.19
2024-01-01T11:18:55.588Z,97024.81
2024-01-01T11:21:36.871Z,97027.28
2024-01-01T11:24:20.972Z,97030.19
2024-01-01T11:26:58.016Z,97028.63
2024-01-01T11:29:31.580Z,97031.72
2024-01-01T11:32:07.960Z,97033.47
2024-01-01T11:34:46.776Z,97033.56
2024-01-01T11:37:24.196Z,97030.66
2024-01-01T11:40:03.737Z,97028.03
2024-01-01T11:42:34.510Z,97024.19
2024-01-01T11:45:11.822Z,97020.56
2024-01-01T11:47:45.117Z,97022.25
2024-01-01T11:50:16.744Z,97023.09
2024-01-01T11:52:47.136Z,97023.97
2024-01-01T11:55:17.470Z,97024.63
2024-01-01T11:57:47.779Z,97026.28
2024-01-01T12:00:18.962Z,97025.94
2024-01-01T12:02:51.962Z,97015.34
2024-01-01T12:05:23.200Z,97028.75
2024-01-01T12:07:53.660Z,97035.69
2024-01-01T12:10:26.372Z,97029.47
2024-01-01T12:13:04.945Z,97027.09
2024-01-01T12:15:36.006Z,97026.31
2024-01-01T12:18:09.221Z,97039.03
2024-01-01T12:20:39.563Z,97032.97
2024-01-01T12:23:23.389Z,97030.47
2024-01-01T12:26:06.085Z,97041.47
2024-01-01T12:28:36.366Z,97038.81
2024-01-01T12:31:09.422Z,97036.28
2024-01-01T12:33:42.452Z,97033.88
2024-01-01T12:36:12.902Z,97034.78
2024-01-01T12:38:43.248Z,97027.94
2024-01-01T12:41:18.758Z,97031.19
2024-01-01T12:43:49.084Z,97033.25
2024-01-01T12:46:19.469Z,97030.94
2024-01-01T12:48:52.447Z,97038.16
2024-01-01T12:51:24.788Z,97037.41
2024-01-01T12:53:56.256Z,97043.59
2024-01-01T12:56:26.785Z,97045.44
2024-01-01T12:58:57.455Z,97056.00
2024-01-01T13:01:27.799Z,97060.28
2024-01-01T13:04:00.828Z,97062.97
2024-01-01T13:06:31.086Z,97065.59
2024-01-01T13:09:01.383Z,97056.94
2024-01-01T13:11:32.021Z,97064.72
2024-01-01T13:14:02.348Z,97064.75
2024-01-01T13:16:32.563Z,97065.63
2024-01-01T13:19:05.614Z,97069.94
2024-01-01T13:21:36.014Z,97072.50
2024-01-01T13:24:06.352Z,97082.75
2024-01-01T13:26:37.602Z,97080.19
2024-01-01T13:29:08.150Z,97095.59
2024-01-01T13:31:38.394Z,97105.03
2024-01-01T13:34:11.297Z,97100.72
2024-01-01T13:36:41.556Z,97098.09
2024-01-01T13:39:12.559Z,97093.81
2024-01-01T13:41:42.810Z,97103.25
2024-01-01T13:44:13.125Z,97105.78
2024-01-01T13:46:43.470Z,97110.09
2024-01-01T13:49:16.441Z,97114.31
2024-01-01T13:51:49.717Z,97113.44
2024-01-01T13:54:20.907Z,97106.63
2024-01-01T13:56:51.229Z,97109.97
2024-01-01T13:59:21.599Z,97109.09
2024-01-01T14:01:53.413Z,97096.22
2024-01-01T14:04:26.684Z,97101.31
2024-01-01T14:06:56.887Z,97108.13
2024-01-01T14:09:27.117Z,97116.63
2024-01-01T14:11:57.381Z,97121.81
2024-01-01T14:14:27.856Z,97112.34
2024-01-01T14:16:58.107Z,97119.25
2024-01-01T14:19:30.992Z,97127.72
2024-01-01T14:22:01.252Z,97132.03
2024-01-01T14:24:31.674Z,97129.31
2024-01-01T14:27:05.187Z,97142.16
2024-01-01T14:29:35.804Z,97147.16
2024-01-01T14:32:06.735Z,97151.34
2024-01-01T14:34:40.332Z,97159.78
2024-01-01T14:37:11.608Z,97160.56
2024-01-01T14:39:41.850Z,97172.47
2024-01-01T14:42:12.184Z,97163.78
2024-01-01T14:44:42.470Z,97169.69
2024-01-01T14:47:12.738Z,97166.19
2024-01-01T14:49:46.041Z,97170.38
2024-01-01T14:52:18.260Z,97172.00
2024-01-01T14:54:48.549Z,97171.97
2024-01-01T14:57:18.838Z,97178.69
2024-01-01T14:59:49.056Z,97176.91
2024-01-01T15:02:19.591Z,97178.44
2024-01-01T15:04:53.419Z,97177.41
2024-01-01T15:07:23.962Z,97174.66
2024-01-01T15:09:54.232Z,97169.38
2024-01-01T15:12:24.869Z,97166.69
2024-01-01T15:14:55.914Z,97177.69
2024-01-01T15:17:29.480Z,97184.50
2024-01-01T15:20:02.448Z,97190.44
2024-01-01T15:22:33.553Z,97195.53
2024-01-01T15:25:04.349Z,97189.91
2024-01-01T15:27:34.695Z,97188.16
2024-01-01T15:30:04.972Z,97185.59
2024-01-01T15:32:35.457Z,97195.03
2024-01-01T15:35:09.496Z,97201.53
2024-01-01T15:37:39.868Z,97203.69
2024-01-01T15:40:11.670Z,97205.97
2024-01-01T15:42:41.908Z,97200.72
2024-01-01T15:45:13.339Z,97199.66
2024-01-01T15:47:43.740Z,97199.38
2024-01-01T15:50:17.085Z,97202.44
2024-01-01T15:52:47.368Z,97209.16
2024-01-01T15:55:17.784Z,97214.91
2024-01-01T15:57:48.378Z,97219.69
2024-01-01T16:00:19.932Z,97209.69
2024-01-01T16:02:50.175Z,97224.88
2024-01-01T16:05:23.266Z,97232.81
2024-01-01T16:07:53.659Z,97232.72
2024-01-01T16:10:24.007Z,97243.56
2024-01-01T16:12:54.192Z,97244.97
2024-01-01T16:15:24.439Z,97244.66
2024-01-01T16:17:54.840Z,97252.22
2024-01-01T16:20:27.833Z,97254.66
2024-01-01T16:22:58.235Z,97254.66
2024-01-01T16:25:28.529Z,97251.97
2024-01-01T16:27:58.985Z,97248.31
2024-01-01T16:30:29.281Z,97250.03
2024-01-01T16:32:59.568Z,97254.94
2024-01-01T16:35:32.475Z,97268.53
2024-01-01T16:38:02.786Z,97266.53
2024-01-01T16:40:33.129Z,97268.34
2024-01-01T16:43:03.619Z,97276.75
2024-01-01T16:45:34.156Z,97271.56
2024-01-01T16:48:04.824Z,97278.56
2024-01-01T16:50:38.219Z,97290.28
2024-01-01T16:53:09.599Z,97280.00
2024-01-01T16:55:40.026Z,97285.09
2024-01-01T16:58:10.289Z,97291.50
2024-01-01T17:00:40.584Z,97290.25
2024-01-01T17:03:11.356Z,97291.59
2024-01-01T17:05:44.632Z,97292.69
2024-01-01T17:08:14.946Z,97296.44
2024-01-01T17:10:45.234Z,97292.91
2024-01-01T17:13:17.519Z,97306.84
2024-01-01T17:15:47.914Z,97302.47
2024-01-01T17:18:18.357Z,97295.66
2024-01-01T17:20:51.263Z,97296.97
2024-01-01T17:23:21.551Z,97315.44
2024-01-01T17:25:51.846Z,97316.72
2024-01-01T17:28:22.650Z,97318.16
2024-01-01T17:30:52.912Z,97326.41
2024-01-01T17:33:23.417Z,97321.63
2024-01-01T17:35:56.384Z,97317.94
2024-01-01T17:38:26.870Z,97321.38
2024-01-01T17:40:57.795Z,97332.31
2024-01-01T17:43:28.033Z,97326.34
2024-01-01T17:45:58.324Z,97332.06
2024-01-01T17:48:28.720Z,97331.59
2024-01-01T17:51:01.954Z,97333.09
2024-01-01T17:53:32.700Z,97339.47
2024-01-01T17:56:07.253Z,97351.38
2024-01-01T17:58:38.268Z,97336.16
2024-01-01T18:01:08.764Z,97345.16
2024-01-01T18:03:39.224Z,97351.25
2024-01-01T18:06:12.252Z,97348.00
2024-01-01T18:08:43.076Z,97353.63
2024-01-01T18:11:21.133Z,97352.16
2024-01-01T18:13:52.246Z,97368.97
2024-01-01T18:16:22.577Z,97369.44
2024-01-01T18:18:52.826Z,97359.38
2024-01-01T18:21:25.740Z,97360.19
2024-01-01T18:23:55.959Z,97348.84
2024-01-01T18:26:26.293Z,97353.41
2024-01-01T18:28:57.717Z,97353.00
2024-01-01T18:31:27.987Z,97357.63
2024-01-01T18:33:58.367Z,97351.41
2024-01-01T18:36:33.846Z,97364.75
2024-01-01T18:39:04.913Z,97369.03
2024-01-01T18:41:35.230Z,97371.22
2024-01-01T18:44:08.389Z,97372.41
2024-01-01T18:46:39.339Z,97367.84
2024-01-01T18:49:10.064Z,97370.28
2024-01-01T18:51:44.087Z,97373.59
2024-01-01T18:54:16.928Z,97365.78
2024-01-01T18:56:51.264Z,97372.72
2024-01-01T18:59:24.788Z,97370.97
2024-01-01T19:01:56.535Z,97372.03
2024-01-01T19:04:29.294Z,97369.97
2024-01-01T19:07:04.798Z,97374.94
2024-01-01T19:09:40.269Z,97376.47
2024-01-01T19:12:13.243Z,97370.06
2024-01-01T19:14:46.150Z,97378.47
2024-01-01T19:17:18.190Z,97393.75
2024-01-01T19:19:51.077Z,97396.41
2024-01-01T19:22:28.029Z,97383.03
2024-01-01T19:25:01.057Z,97388.16
2024-01-01T19:27:33.803Z,97385.19
2024-01-01T19:30:05.346Z,97383.50
2024-01-01T19:32:36.543Z,97387.50
2024-01-01T19:35:09.607Z,97377.38
2024-01-01T19:37:45.077Z,97380.19
2024-01-01T19:40:21.282Z,97389.19
2024-01-01T19:42:53.464Z,97387.06
2024-01-01T19:45:26.443Z,97377.69
2024-01-01T19:47:58.420Z,97389.44
2024-01-01T19:50:30.351Z,97395.38
2024-01-01T19:53:14.069Z,97397.94
2024-01-01T19:55:52.853Z,97412.09
2024-01-01T19:58:25.351Z,97396.06
2024-01-01T20:00:59.140Z,97398.34
2024-01-01T20:03:33.182Z,97405.94
2024-01-01T20:06:10.292Z,97402.38
2024-01-01T20:08:46.797Z,97404.72
2024-01-01T20:11:26.802Z,97404.63
2024-01-01T20:13:59.144Z,97407.94
2024-01-01T20:16:33.605Z,97403.59
2024-01-01T20:19:06.940Z,97411.22
2024-01-01T20:21:40.379Z,97403.59
2024-01-01T20:24:17.202Z,97403.50
2024-01-01T20:26:51.072Z,97396.41
2024-01-01T20:29:25.076Z,97404.44
2024-01-01T20:31:59.137Z,97399.81
2024-01-01T20:34:33.165Z,97400.16
2024-01-01T20:37:05.493Z,97396.56
2024-01-01T20:39:41.577Z,97401.16
2024-01-01T20:42:14.822Z,97389.78
2024-01-01T20:44:49.382Z,97399.63
2024-01-01T20:47:23.061Z,97388.59
2024-01-01T20:49:56.759Z,97398.34
2024-01-01T20:52:32.225Z,97397.25
2024-01-01T20:55:09.837Z,97398.88
2024-01-01T20:57:40.912Z,97399.69
2024-01-01T21:00:12.834Z,97403.75
2024-01-01T21:02:43.234Z,97397.06
2024-01-01T21:05:15.653Z,97396.94
2024-01-01T21:07:46.430Z,97404.63
2024-01-01T21:10:20.033Z,97398.47
2024-01-01T21:12:50.279Z,97399.94
2024-01-01T21:15:20.711Z,97394.84
2024-01-01T21:17:51.023Z,97388.59
2024-01-01T21:20:21.490Z,97390.16
2024-01-01T21:22:51.968Z,97389.91
2024-01-01T21:25:25.013Z,97387.34
2024-01-01T21:27:55.496Z,97388.75
2024-01-01T21:30:25.852Z,97391.97
2024-01-01T21:32:56.518Z,97392.72
2024-01-01T21:35:27.062Z,97389.25
2024-01-01T21:37:57.635Z,97396.69
2024-01-01T21:40:30.739Z,97392.19
2024-01-01T21:43:01.537Z,97390.47
2024-01-01T21:45:31.749Z,97389.59
2024-01-01T21:48:03.777Z,97388.66
2024-01-01T21:50:35.005Z,97394.44
2024-01-01T21:53:05.586Z,97396.22
2024-01-01T21:55:38.683Z,97397.69
2024-01-01T21:58:09.663Z,97399.69
2024-01-01T22:00:40.463Z,97404.81
2024-01-01T22:03:12.391Z,97399.81
2024-01-01T22:05:43.397Z,97406.44
2024-01-01T22:08:13.757Z,97389.22
2024-01-01T22:10:47.348Z,97403.84
2024-01-01T22:13:17.672Z,97399.47
2024-01-01T22:15:48.167Z,97392.97
2024-01-01T22:18:18.605Z,97404.09
2024-01-01T22:20:49.372Z,97408.06
2024-01-01T22:23:21.176Z,97396.00
2024-01-01T22:25:54.170Z,97397.13
2024-01-01T22:28:24.512Z,97397.88
2024-01-01T22:30:55.396Z,97395.81
2024-01-01T22:33:26.168Z,97408.34
2024-01-01T22:35:56.740Z,97397.72
2024-01-01T22:38:27.246Z,97399.75
2024-01-01T22:41:00.848Z,97379.13
2024-01-01T22:43:31.695Z,97389.25
2024-01-01T22:46:02.691Z,97388.16
2024-01-01T22:48:33.399Z,97387.28
2024-01-01T22:51:03.749Z,97391.00
2024-01-01T22:53:34.874Z,97392.41
2024-01-01T22:56:07.988Z,97393.84
2024-01-01T22:58:38.472Z,97394.44
2024-01-01T23:01:09.501Z,97390.06
2024-01-01T23:03:40.460Z,97390.81
2024-01-01T23:06:13.756Z,97391.63
2024-01-01T23:08:44.232Z,97394.25
2024-01-01T23:11:17.116Z,97392.06
2024-01-01T23:13:47.445Z,97389.63
2024-01-01T23:16:18.018Z,97395.19
2024-01-01T23:18:48.427Z,97398.81
2024-01-01T23:21:18.960Z,97391.47
2024-01-01T23:23:49.298Z,97406.56
2024-01-01T23:26:23.240Z,97409.75
2024-01-01T23:28:54.402Z,97403.75
2024-01-01T23:31:25.101Z,97390.03
2024-01-01T23:34:04.874Z,97387.56
2024-01-01T23:36:43.855Z,97381.75
2024-01-01T23:39:14.584Z,97388.91
2024-01-01T23:41:47.475Z,97384.41
2024-01-01T23:44:17.849Z,97384.88
2024-01-01T23:46:48.213Z,97371.41
2024-01-01T23:49:18.489Z,97365.59
2024-01-01T23:51:48.818Z,97366.69
2024-01-01T23:54:19.163Z,97356.25
2024-01-01T23:56:52.140Z,97360.28
2024-01-01T23:59:22.577Z,97362.81
